Map

Track Data

SID SEASON NUMBER BASIN SUBBASIN NAME ISO_TIME NATURE LAT LON WMO_WIND WMO_PRES WMO_AGENCY TRACK_TYPE DIST2LAND LANDFALL IFLAG USA_AGENCY USA_ATCF_ID USA_LAT USA_LON USA_RECORD USA_STATUS USA_WIND USA_PRES USA_SSHS USA_R34_NE USA_R34_SE USA_R34_SW USA_R34_NW USA_R50_NE USA_R50_SE USA_R50_SW USA_R50_NW USA_R64_NE USA_R64_SE USA_R64_SW USA_R64_NW USA_POCI USA_ROCI USA_RMW USA_EYE TOKYO_LAT TOKYO_LON TOKYO_GRADE TOKYO_WIND TOKYO_PRES TOKYO_R50_DIR TOKYO_R50_LONG TOKYO_R50_SHORT TOKYO_R30_DIR TOKYO_R30_LONG TOKYO_R30_SHORT TOKYO_LAND CMA_LAT CMA_LON CMA_CAT CMA_WIND CMA_PRES HKO_LAT HKO_LON HKO_CAT HKO_WIND HKO_PRES NEWDELHI_LAT NEWDELHI_LON NEWDELHI_GRADE NEWDELHI_WIND NEWDELHI_PRES NEWDELHI_CI NEWDELHI_DP NEWDELHI_POCI REUNION_LAT REUNION_LON REUNION_TYPE REUNION_WIND REUNION_PRES REUNION_TNUM REUNION_CI REUNION_RMW REUNION_R34_NE REUNION_R34_SE REUNION_R34_SW REUNION_R34_NW REUNION_R50_NE REUNION_R50_SE REUNION_R50_SW REUNION_R50_NW REUNION_R64_NE REUNION_R64_SE REUNION_R64_SW REUNION_R64_NW BOM_LAT BOM_LON BOM_TYPE BOM_WIND BOM_PRES BOM_TNUM BOM_CI BOM_RMW BOM_R34_NE BOM_R34_SE BOM_R34_SW BOM_R34_NW BOM_R50_NE BOM_R50_SE BOM_R50_SW BOM_R50_NW BOM_R64_NE BOM_R64_SE BOM_R64_SW BOM_R64_NW BOM_ROCI BOM_POCI BOM_EYE BOM_POS_METHOD BOM_PRES_METHOD NADI_LAT NADI_LON NADI_CAT NADI_WIND NADI_PRES WELLINGTON_LAT WELLINGTON_LON WELLINGTON_WIND WELLINGTON_PRES DS824_LAT DS824_LON DS824_STAGE DS824_WIND DS824_PRES TD9636_LAT TD9636_LON TD9636_STAGE TD9636_WIND TD9636_PRES TD9635_LAT TD9635_LON TD9635_WIND TD9635_PRES TD9635_ROCI NEUMANN_LAT NEUMANN_LON NEUMANN_CLASS NEUMANN_WIND NEUMANN_PRES MLC_LAT MLC_LON MLC_CLASS MLC_WIND MLC_PRES USA_GUST BOM_GUST BOM_GUST_PER REUNION_GUST REUNION_GUST_PER USA_SEAHGT USA_SEARAD_NE USA_SEARAD_SE USA_SEARAD_SW USA_SEARAD_NW STORM_SPEED STORM_DIR
1996309N21175 1996 109 WP MM NOT_NAMED 1996-11-04 06:00:00 NR 21.4000 175.100 main 2590 2585 O_____________ jtwc_wp WP381996 21.4000 175.100 25 -1 11 354
1996309N21175 1996 109 WP MM NOT_NAMED 1996-11-04 09:00:00 NR 21.9224 175.040 main 2595 2591 P_____________ WP381996 21.9224 175.040 30 -1 10 349
1996309N21175 1996 109 WP MM NOT_NAMED 1996-11-04 12:00:00 NR 22.4000 174.900 main 2601 2600 O_____________ jtwc_wp WP381996 22.4000 174.900 35 0 10 337
1996309N21175 1996 109 WP MM NOT_NAMED 1996-11-04 15:00:00 NR 22.7951 174.630 main 2629 2628 P_____________ WP381996 22.7951 174.630 37 0 9 322
1996309N21175 1996 109 WP MM NOT_NAMED 1996-11-04 18:00:00 NR 23.1000 174.300 main 2658 2658 O_____________ jtwc_wp WP381996 23.1000 174.300 40 0 8 313
1996309N21175 1996 109 WP MM NOT_NAMED 1996-11-04 21:00:00 NR 23.3449 174.000 main 2687 2687 P_____________ WP381996 23.3449 174.000 45 0 7 306
1996309N21175 1996 109 WP MM NOT_NAMED 1996-11-05 00:00:00 NR 23.5000 173.700 main 2717 2717 O_____________ jtwc_wp WP381996 23.5000 173.700 50 0 6 293
1996309N21175 1996 109 WP MM NOT_NAMED 1996-11-05 03:00:00 NR 23.5799 173.400 main 2747 2747 P_____________ WP381996 23.5799 173.400 50 0 6 280
1996309N21175 1996 109 WP MM NOT_NAMED 1996-11-05 06:00:00 NR 23.6000 173.100 main 2778 2778 O_____________ jtwc_wp WP381996 23.6000 173.100 50 0 6 272
1996309N21175 1996 109 WP MM NOT_NAMED 1996-11-05 09:00:00 NR 23.6000 172.785 main 2808 2808 P_____________ WP381996 23.6000 172.785 47 0 5 270
1996309N21175 1996 109 WP MM NOT_NAMED 1996-11-05 12:00:00 NR 23.6000 172.500 main 2839 2839 O_____________ jtwc_wp WP381996 23.6000 172.500 45 0 5 273
1996309N21175 1996 109 WP MM NOT_NAMED 1996-11-05 15:00:00 NR 23.6274 172.277 main 2859 2859 P_____________ WP381996 23.6274 172.277 42 0 4 285
1996309N21175 1996 109 WP MM NOT_NAMED 1996-11-05 18:00:00 NR 23.7000 172.100 main 2879 2879 O_____________ jtwc_wp WP381996 23.7000 172.100 40 0 4 302
1996309N21175 1996 109 WP MM NOT_NAMED 1996-11-05 21:00:00 NR 23.8350 171.920 main 2899 2899 P_____________ WP381996 23.8350 171.920 37 0 4 318
1996309N21175 1996 109 WP MM NOT_NAMED 1996-11-06 00:00:00 NR 24.0000 171.800 main 2909 2909 O_____________ jtwc_wp WP381996 24.0000 171.800 35 0 4 336
1996309N21175 1996 109 WP MM NOT_NAMED 1996-11-06 03:00:00 NR 24.1575 171.762 main 2908 2908 P_____________ WP381996 24.1575 171.762 35 0 3 0
1996309N21175 1996 109 WP MM NOT_NAMED 1996-11-06 06:00:00 NR 24.3000 171.800 main 2908 2898 O_____________ jtwc_wp WP381996 24.3000 171.800 35 0 3 24
1996309N21175 1996 109 WP MM NOT_NAMED 1996-11-06 09:00:00 NR 24.4075 171.885 main 2898 2888 P_____________ WP381996 24.4075 171.885 35 0 3 42
1996309N21175 1996 109 WP MM NOT_NAMED 1996-11-06 12:00:00 NR 24.5000 172.000 main 2888 2878 O_____________ jtwc_wp WP381996 24.5000 172.000 35 0 3 48
1996309N21175 1996 109 WP MM NOT_NAMED 1996-11-06 15:00:00 NR 24.5925 172.108 main 2878 2867 P_____________ WP381996 24.5925 172.108 35 0 3 42
1996309N21175 1996 109 WP MM NOT_NAMED 1996-11-06 18:00:00 NR 24.7000 172.200 main 2868 2857 O_____________ jtwc_wp WP381996 24.7000 172.200 35 0 3 30
1996309N21175 1996 109 WP MM NOT_NAMED 1996-11-06 21:00:00 NR 24.8350 172.258 main 2857 2857 P_____________ WP381996 24.8350 172.258 35 0 3 16
1996309N21175 1996 109 WP MM NOT_NAMED 1996-11-07 00:00:00 NR 25.0000 172.300 main 2858 2848 O_____________ jtwc_wp WP381996 25.0000 172.300 35 0 3 25
1996309N21175 1996 109 WP MM NOT_NAMED 1996-11-07 03:00:00 NR 25.1249 172.402 main 2848 2848 P_____________ WP381996 25.1249 172.402 35 0 4 12
1996309N21175 1996 109 WP MM NOT_NAMED 1996-11-07 06:00:00 NR 25.4000 172.400 main 2849 2849 O_____________ jtwc_wp WP381996 25.4000 172.400 35 0 9 349
1996309N21175 1996 109 WP MM NOT_NAMED 1996-11-07 09:00:00 NR 26.0122 172.205 main 2871 2864 P_____________ WP381996 26.0122 172.205 35 0 14 337
1996309N21175 1996 109 WP MM NOT_NAMED 1996-11-07 12:00:00 NR 26.7000 171.800 main 2864 2780 O_____________ jtwc_wp WP381996 26.7000 171.800 35 0 16 325
1996309N21175 1996 109 WP MM NOT_NAMED 1996-11-07 15:00:00 NR 27.2925 171.219 main 2775 2707 P_____________ WP381996 27.2925 171.219 35 0 15 308
1996309N21175 1996 109 WP MM NOT_NAMED 1996-11-07 18:00:00 NR 27.6000 170.500 main 2707 2677 O_____________ jtwc_wp WP381996 27.6000 170.500 35 0 14 274
1996309N21175 1996 109 WP MM NOT_NAMED 1996-11-07 21:00:00 NR 27.3986 169.627 main 2675 2670 P_____________ WP381996 27.3986 169.627 35 0 15 246
1996309N21175 1996 109 WP MM NOT_NAMED 1996-11-08 00:00:00 NR 27.0000 169.000 main 2680 2680 O_____________ jtwc_wp WP381996 27.0000 169.000 35 0 8 221
1996309N21175 1996 109 WP MM NOT_NAMED 1996-11-08 03:00:00 NR 26.7619 169.001 main 2698 2698 P_____________ WP381996 26.7619 169.001 35 0 5 146
1996309N21175 1996 109 WP MM NOT_NAMED 1996-11-08 06:00:00 NR 26.6000 169.300 main 2733 2733 O_____________ jtwc_wp WP381996 26.6000 169.300 35 0 5 117
1996309N21175 1996 109 WP MM NOT_NAMED 1996-11-08 09:00:00 NR 26.5201 169.542 main 2753 2753 P_____________ WP381996 26.5201 169.542 32 -1 5 103
1996309N21175 1996 109 WP MM NOT_NAMED 1996-11-08 12:00:00 NR 26.5000 169.800 main 2770 2770 O_____________ jtwc_wp WP381996 26.5000 169.800 30 -1 4 92
1996309N21175 1996 109 WP MM NOT_NAMED 1996-11-08 15:00:00 NR 26.5075 170.022 main 2781 2781 P_____________ WP381996 26.5075 170.022 30 -1 4 90
1996309N21175 1996 109 WP MM NOT_NAMED 1996-11-08 18:00:00 NR 26.5000 170.200 main 2792 2792 O_____________ jtwc_wp WP381996 26.5000 170.200 30 -1 3 108
1996309N21175 1996 109 WP MM NOT_NAMED 1996-11-08 21:00:00 NR 26.4224 170.315 main 2806 2806 P_____________ WP381996 26.4224 170.315 27 -1 3 138
1996309N21175 1996 109 WP MM NOT_NAMED 1996-11-09 00:00:00 NR 26.3000 170.400 main 2821 2821 O_____________ jtwc_wp WP381996 26.3000 170.400 25 -1 3 146
1996309N21175 1996 109 WP MM NOT_NAMED 1996-11-09 03:00:00 NR 26.1650 170.508 main 2836 2836 P_____________ WP381996 26.1650 170.508 25 -1 4 149
1996309N21175 1996 109 WP MM NOT_NAMED 1996-11-09 06:00:00 NR 26.0000 170.600 main 2860 2860 O_____________ jtwc_wp WP381996 26.0000 170.600 25 -1 4 157
1996309N21175 1996 109 WP MM NOT_NAMED 1996-11-09 09:00:00 NR 25.8150 170.673 main 2884 2884 P_____________ WP381996 25.8150 170.673 25 -1 4 168
1996309N21175 1996 109 WP MM NOT_NAMED 1996-11-09 12:00:00 NR 25.6000 170.700 main 2903 2903 O_____________ jtwc_wp WP381996 25.6000 170.700 25 -1 5 0
1996309N21175 1996 109 WP MM NOT_NAMED 1996-11-09 15:00:00 NR 25.3650 170.650 main 2916 2916 P_____________ WP381996 25.3650 170.650 25 -1 5 190
1996309N21175 1996 109 WP MM NOT_NAMED 1996-11-09 18:00:00 NR 25.1000 170.600 main 2944 2944 O_____________ jtwc_wp WP381996 25.1000 170.600 25 -1 6 181
1996309N21175 1996 109 WP MM NOT_NAMED 1996-11-09 21:00:00 NR 24.8000 170.620 main 2973 2973 P_____________ WP381996 24.8000 170.620 25 -1 6 172
1996309N21175 1996 109 WP MM NOT_NAMED 1996-11-10 00:00:00 NR 24.5000 170.700 main 3007 3007 O_____________ jtwc_wp WP381996 24.5000 170.700 25 -1 6 166
1996309N21175 1996 109 WP MM NOT_NAMED 1996-11-10 03:00:00 NR 24.2048 170.790 main 3010 2990 P_____________ WP381996 24.2048 170.790 25 -1 6 151
1996309N21175 1996 109 WP MM NOT_NAMED 1996-11-10 06:00:00 NR 24.0000 171.000 main 2990 2949 O_____________ jtwc_wp WP381996 24.0000 171.000 25 -1 6 113
1996309N21175 1996 109 WP MM NOT_NAMED 1996-11-10 09:00:00 NR 23.9699 171.382 main 2949 2899 P_____________ WP381996 23.9699 171.382 27 -1 8 90
1996309N21175 1996 109 WP MM NOT_NAMED 1996-11-10 12:00:00 NR 24.0000 171.900 main 2899 2848 O_____________ jtwc_wp WP381996 24.0000 171.900 30 -1 10 91
1996309N21175 1996 109 WP MM NOT_NAMED 1996-11-10 15:00:00 NR 23.9574 172.470 main 2838 2777 P_____________ WP381996 23.9574 172.470 30 -1 11 95
1996309N21175 1996 109 WP MM NOT_NAMED 1996-11-10 18:00:00 NR 23.9000 173.100 main 2777 2716 O_____________ jtwc_wp WP381996 23.9000 173.100 30 -1 12 95
1996309N21175 1996 109 WP MM NOT_NAMED 1996-11-10 21:00:00 NR 23.8497 173.735 main 2716 2645 P_____________ WP381996 23.8497 173.735 30 -1 12 95
1996309N21175 1996 109 WP MM NOT_NAMED 1996-11-11 00:00:00 NR 23.8000 174.400 main 2645 2584 O_____________ jtwc_wp WP381996 23.8000 174.400 30 -1 12 94
1996309N21175 1996 109 WP MM NOT_NAMED 1996-11-11 03:00:00 NR 23.7722 175.085 main 2574 2503 P_____________ WP381996 23.7722 175.085 27 -1 13 94
1996309N21175 1996 109 WP MM NOT_NAMED 1996-11-11 06:00:00 NR 23.7000 175.800 main 2503 2432 O_____________ jtwc_wp WP381996 23.7000 175.800 25 -1 14 100
1996309N21175 1996 109 WP MM NOT_NAMED 1996-11-11 09:00:00 NR 23.5297 176.543 main 2432 2351 P_____________ WP381996 23.5297 176.543 25 -1 14 106
1996309N21175 1996 109 WP MM NOT_NAMED 1996-11-11 12:00:00 NR 23.3000 177.300 main 2351 2280 O_____________ jtwc_wp WP381996 23.3000 177.300 25 -1 14 109
1996309N21175 1996 109 WP MM NOT_NAMED 1996-11-11 15:00:00 NR 23.0639 178.005 main 2280 2199 P_____________ WP381996 23.0639 178.005 25 -1 15 110
1996309N21175 1996 109 WP MM NOT_NAMED 1996-11-11 18:00:00 NR 22.8000 178.800 main 2199 2108 O_____________ jtwc_wp WP381996 22.8000 178.800 25 -1 17 109
1996309N21175 1996 109 WP MM NOT_NAMED 1996-11-11 21:00:00 NR 22.5096 179.791 main 2097 1996 P_____________ WP381996 22.5096 179.791 25 -1 20 107
1996309N21175 1996 109 EP CP NOT_NAMED 1996-11-12 00:00:00 NR 22.2000 180.900 main 1986 O_____________ jtwc_wp WP381996 22.2000 -179.100 25 -1 21 107

Digital Typhoon Data and Search

About IBTrACS Database

This database is a web-friendly format of International Best Track Archive for Climate Stewardship (IBTrACS), a global best track data archive curated by NOAA dating back to 1842.

Updated: 2021-10-27